Time;durP1;ratioP1;P1;durP2;ratioP2;P2;SDS_P1;SDS_P2;PMS_P1;PMS_P2;Temp;Humidity;BMP_temperature;BMP_pressure;BME280_temperature;BME280_humidity;BME280_pressure;Samples;Min_cycle;Max_cycle;Signal;HPM_P1;HPM_P2
2021/12/28 00:00:12;;;;;;;66.18;28.48;;;0.10;99.90;;;;;;5045671;28;20072;-78
2021/12/28 00:02:39;;;;;;;62.38;27.88;;;0.20;99.90;;;;;;5031164;28;20033;-78
2021/12/28 00:05:06;;;;;;;43.90;20.63;;;0.10;99.90;;;;;;5046150;28;20048;-78
2021/12/28 00:07:32;;;;;;;40.05;17.45;;;0.20;99.90;;;;;;5030134;28;20553;-77
2021/12/28 00:09:58;;;;;;;;;;;0.20;99.90;;;;;;5045847;28;20136;-78
2021/12/28 00:12:23;;;;;;;26.77;11.55;;;0.20;99.90;;;;;;5031318;28;19909;-78
2021/12/28 00:15:05;;;;;;;;;;;0.20;99.90;;;;;;5035224;28;20043;-78
2021/12/28 00:20:15;;;;;;;22.42;11.40;;;0.30;99.90;;;;;;5036001;28;20068;-77
2021/12/28 00:22:41;;;;;;;;;;;0.30;99.90;;;;;;5047756;28;20044;-77
2021/12/28 00:25:07;;;;;;;35.25;15.25;;;0.30;99.90;;;;;;5032163;28;19917;-77
2021/12/28 00:27:33;;;;;;;36.53;17.40;;;0.40;99.90;;;;;;5032685;28;20013;-77
2021/12/28 00:29:59;;;;;;;;;;;0.40;99.90;;;;;;5033432;28;20563;-77
2021/12/28 00:32:24;;;;;;;45.80;18.73;;;0.50;99.90;;;;;;5031376;28;19959;-78
2021/12/28 00:34:50;;;;;;;;;;;0.50;99.90;;;;;;5033033;28;20021;-78
2021/12/28 00:37:17;;;;;;;42.90;15.10;;;0.60;99.90;;;;;;5030915;28;20289;-78
2021/12/28 00:39:42;;;;;;;32.70;12.77;;;0.50;99.90;;;;;;5032392;28;20025;-78
2021/12/28 00:42:08;;;;;;;;;;;0.50;99.90;;;;;;5048126;28;20049;-78
2021/12/28 00:44:34;;;;;;;21.00;9.30;;;0.50;99.90;;;;;;5031230;28;19916;-78
2021/12/28 00:47:00;;;;;;;;;;;0.60;99.90;;;;;;5033640;28;20029;-78
2021/12/28 00:49:26;;;;;;;19.13;9.35;;;0.60;99.90;;;;;;5031239;28;20003;-77
2021/12/28 00:51:52;;;;;;;;;;;0.70;99.90;;;;;;5033847;28;20120;-78
2021/12/28 00:54:18;;;;;;;19.58;9.82;;;0.70;99.90;;;;;;5031231;28;19909;-77
2021/12/28 00:56:43;;;;;;;;;;;0.70;99.90;;;;;;5034015;28;20022;-77
2021/12/28 00:59:09;;;;;;;22.90;10.10;;;0.70;99.90;;;;;;5031403;28;19905;-76
2021/12/28 01:01:34;;;;;;;;;;;0.70;99.90;;;;;;5033425;28;20064;-77
2021/12/28 01:04:00;;;;;;;24.92;9.43;;;0.70;99.90;;;;;;5031310;28;20293;-77
2021/12/28 01:06:25;;;;;;;;;;;0.70;99.90;;;;;;5048650;28;20076;-77
2021/12/28 01:08:51;;;;;;;22.75;10.20;;;0.80;99.90;;;;;;5032057;28;20370;-77
2021/12/28 01:11:17;;;;;;;;;;;0.80;99.90;;;;;;5031930;28;20045;-77
2021/12/28 01:13:42;;;;;;;18.35;7.95;;;0.80;99.90;;;;;;5032176;28;19905;-76
2021/12/28 01:16:08;;;;;;;;;;;0.80;99.90;;;;;;5033013;28;20034;-77
2021/12/28 01:18:34;;;;;;;11.25;5.88;;;0.80;99.90;;;;;;5031466;28;19909;-78
2021/12/28 01:21:00;;;;;;;;;;;0.80;99.90;;;;;;5034248;28;20631;-77
2021/12/28 01:23:26;;;;;;;12.68;6.55;;;0.80;99.90;;;;;;5032621;28;19908;-78
2021/12/28 01:25:52;;;;;;;10.95;5.38;;;0.80;99.90;;;;;;5034182;28;20061;-78
2021/12/28 01:28:17;;;;;;;;;;;0.80;99.90;;;;;;5051398;28;20030;-78
2021/12/28 01:30:43;;;;;;;16.33;8.38;;;0.80;99.90;;;;;;5034591;28;19967;-78
2021/12/28 01:33:10;;;;;;;35.35;15.68;;;0.80;99.90;;;;;;5050176;28;20037;-78
2021/12/28 01:35:36;;;;;;;45.97;19.40;;;0.80;99.90;;;;;;5047145;28;20043;-77
2021/12/28 01:38:02;;;;;;;52.55;20.98;;;0.70;99.90;;;;;;5031415;28;20021;-76
2021/12/28 01:40:30;;;;;;;;;;;0.70;99.90;;;;;;5048143;28;20040;-77
2021/12/28 01:43:00;;;;;;;45.03;17.00;;;0.70;99.90;;;;;;5031696;28;19951;-77
2021/12/28 01:45:49;;;;;;;40.67;16.42;;;0.60;99.90;;;;;;5032425;28;20041;-77
2021/12/28 01:48:17;;;;;;;36.17;15.13;;;0.60;99.90;;;;;;5055026;28;20508;-78
2021/12/28 01:50:44;;;;;;;37.95;16.45;;;0.60;99.90;;;;;;5045952;28;20124;-77
2021/12/28 01:53:10;;;;;;;33.50;15.23;;;0.60;99.90;;;;;;5045465;28;20030;-77
2021/12/28 01:55:36;;;;;;;;;;;0.60;99.90;;;;;;5046852;28;20056;-78
2021/12/28 01:58:03;;;;;;;28.73;14.05;;;0.60;99.90;;;;;;5029356;28;19952;-78
2021/12/28 02:00:29;;;;;;;30.88;14.25;;;0.50;99.90;;;;;;5031689;28;20563;-78
2021/12/28 02:02:55;;;;;;;28.52;13.07;;;0.50;99.90;;;;;;5046149;28;20116;-77
2021/12/28 02:05:21;;;;;;;;;;;0.50;99.90;;;;;;5045961;28;20466;-78
2021/12/28 02:07:47;;;;;;;31.05;14.05;;;0.50;99.90;;;;;;5029798;28;19916;-78
2021/12/28 02:10:12;;;;;;;;;;;0.50;99.90;;;;;;5029944;28;20036;-78
2021/12/28 02:12:38;;;;;;;22.10;10.30;;;0.50;99.90;;;;;;5029482;28;19911;-77
2021/12/28 02:15:08;;;;;;;16.55;8.25;;;0.50;99.90;;;;;;5045386;28;20021;-78
2021/12/28 02:17:34;;;;;;;17.35;8.60;;;0.50;99.90;;;;;;5044871;28;20072;-77
2021/12/28 02:20:17;;;;;;;12.65;6.88;;;0.50;99.90;;;;;;5029838;28;20021;-78
2021/12/28 02:22:43;;;;;;;13.20;6.70;;;0.50;99.90;;;;;;5044905;28;20029;-78
2021/12/28 02:25:09;;;;;;;;;;;0.50;99.90;;;;;;5030140;28;20046;-78
2021/12/28 02:27:35;;;;;;;14.75;6.95;;;0.50;99.90;;;;;;5028475;28;20613;-78
2021/12/28 02:30:02;;;;;;;;;;;0.50;99.90;;;;;;5030921;28;20036;-78
2021/12/28 02:32:30;;;;;;;14.43;6.85;;;0.50;99.90;;;;;;5030662;28;20390;-78
2021/12/28 02:34:57;;;;;;;15.82;8.15;;;0.50;99.90;;;;;;5045030;28;20030;-78
2021/12/28 02:37:23;;;;;;;13.85;7.75;;;0.50;99.90;;;;;;5045092;28;20045;-77
2021/12/28 02:39:50;;;;;;;19.40;10.43;;;0.50;99.90;;;;;;5029898;28;20108;-77
2021/12/28 02:42:21;;;;;;;21.95;11.52;;;0.50;99.90;;;;;;5045069;28;20033;-77
2021/12/28 02:45:01;;;;;;;17.20;7.65;;;0.50;99.90;;;;;;5029758;28;20524;-77
2021/12/28 02:47:28;;;;;;;19.33;10.45;;;0.50;99.90;;;;;;5044585;28;20076;-77
2021/12/28 02:49:54;;;;;;;15.05;8.75;;;0.50;99.90;;;;;;5044765;28;20032;-77
2021/12/28 02:52:19;;;;;;;;;;;0.40;99.90;;;;;;5045313;28;20148;-77
2021/12/28 02:54:45;;;;;;;17.17;8.73;;;0.30;99.90;;;;;;5028730;28;20394;-77
2021/12/28 02:57:11;;;;;;;17.75;9.80;;;0.30;99.90;;;;;;5045004;28;20082;-77
2021/12/28 02:59:44;;;;;;;;;;;0.20;99.90;;;;;;5030088;28;20025;-77
2021/12/28 03:02:10;;;;;;;19.40;9.38;;;0.10;99.90;;;;;;5027683;28;19991;-77
2021/12/28 03:04:35;;;;;;;;;;;0.10;99.90;;;;;;5029138;28;20100;-76
2021/12/28 03:07:01;;;;;;;25.55;12.23;;;0.00;99.90;;;;;;5028786;28;20373;-77
2021/12/28 03:09:26;;;;;;;;;;;-0.10;99.90;;;;;;5045236;28;20044;-77
2021/12/28 03:11:52;;;;;;;34.40;18.20;;;-0.10;99.90;;;;;;5027251;28;19967;-77
2021/12/28 03:14:18;;;;;;;;;;;-0.20;99.90;;;;;;5045224;28;20393;-77
2021/12/28 03:16:43;;;;;;;47.85;21.63;;;-0.20;99.90;;;;;;5035137;28;19905;-77
2021/12/28 03:19:09;;;;;;;;;;;-0.30;99.90;;;;;;5044793;28;20113;-77
2021/12/28 03:21:35;;;;;;;42.50;22.92;;;-0.40;99.90;;;;;;5026105;28;19952;-77
2021/12/28 03:24:01;;;;;;;53.03;24.40;;;-0.40;99.90;;;;;;5042438;28;20068;-77
2021/12/28 03:26:27;;;;;;;;;;;-0.50;99.90;;;;;;5043271;28;20041;-77
2021/12/28 03:28:53;;;;;;;41.70;21.02;;;-0.50;99.90;;;;;;5027574;28;19916;-77
2021/12/28 03:31:20;;;;;;;;;;;-0.60;99.90;;;;;;5043340;28;20078;-78
2021/12/28 03:33:48;;;;;;;46.88;22.52;;;-0.70;99.90;;;;;;5026939;28;20281;-78
2021/12/28 03:36:17;;;;;;;46.13;22.70;;;-0.70;99.90;;;;;;5043141;28;20456;-77
2021/12/28 03:38:43;;;;;;;39.88;21.02;;;-0.80;99.90;;;;;;5042735;28;20029;-77
2021/12/28 03:41:10;;;;;;;33.42;17.17;;;-0.80;99.90;;;;;;5043295;28;20073;-77
2021/12/28 03:43:38;;;;;;;34.67;16.35;;;-0.80;99.90;;;;;;5042831;28;20025;-78
2021/12/28 03:46:05;;;;;;;33.88;17.55;;;-0.80;99.90;;;;;;5043439;28;20041;-77
2021/12/28 03:48:31;;;;;;;32.15;17.05;;;-0.80;99.90;;;;;;5031898;28;20096;-77
2021/12/28 03:50:56;;;;;;;;;;;-0.80;99.90;;;;;;5046993;28;20477;-78
2021/12/28 03:53:22;;;;;;;27.52;13.23;;;-0.80;99.90;;;;;;5031885;28;19905;-78
2021/12/28 03:55:47;;;;;;;;;;;-0.80;99.90;;;;;;5031979;28;20034;-78
2021/12/28 03:58:13;;;;;;;22.67;11.25;;;-0.80;99.90;;;;;;5030829;28;20266;-77
2021/12/28 04:00:42;;;;;;;;;;;-0.70;99.90;;;;;;5048154;28;20026;-77
2021/12/28 04:03:08;;;;;;;27.33;12.82;;;-0.70;99.90;;;;;;5031428;28;19940;-77
2021/12/28 04:05:35;;;;;;;22.40;10.60;;;-0.60;99.90;;;;;;5047787;28;20037;-76
2021/12/28 04:08:01;;;;;;;23.77;13.18;;;-0.60;99.90;;;;;;5047342;28;20033;-78
2021/12/28 04:10:31;;;;;;;;;;;-0.60;99.90;;;;;;5049271;28;20721;-78
2021/12/28 04:12:57;;;;;;;18.95;9.82;;;-0.60;99.90;;;;;;5030724;28;19908;-77
2021/12/28 04:15:23;;;;;;;;;;;-0.50;99.90;;;;;;5031820;28;20037;-77
2021/12/28 04:17:50;;;;;;;16.90;9.57;;;-0.40;99.90;;;;;;5029901;28;19916;-78
2021/12/28 04:20:18;;;;;;;17.85;9.10;;;-0.40;99.90;;;;;;5031538;28;20037;-77
2021/12/28 04:22:44;;;;;;;14.70;8.27;;;-0.40;99.90;;;;;;5046389;28;20156;-77
2021/12/28 04:25:12;;;;;;;16.77;8.25;;;-0.30;99.90;;;;;;5046693;28;20049;-77
2021/12/28 04:27:37;;;;;;;18.23;10.10;;;-0.30;99.90;;;;;;5046451;28;20159;-77
2021/12/28 04:30:04;;;;;;;;;;;-0.20;99.90;;;;;;5047083;28;20097;-77
2021/12/28 04:32:33;;;;;;;16.33;8.95;;;-0.20;99.90;;;;;;5028699;28;19909;-76
2021/12/28 04:34:59;;;;;;;15.75;8.80;;;-0.10;99.90;;;;;;5030368;28;20041;-75
2021/12/28 04:37:24;;;;;;;17.60;8.00;;;-0.10;99.90;;;;;;5030289;28;20029;-75
2021/12/28 04:39:50;;;;;;;;;;;-0.10;99.90;;;;;;5046644;28;20029;-75
2021/12/28 04:42:16;;;;;;;24.80;13.35;;;-0.10;99.90;;;;;;5030184;28;19909;-76
2021/12/28 04:44:41;;;;;;;30.75;16.95;;;-0.20;99.90;;;;;;5039028;28;20386;-78
2021/12/28 04:47:07;;;;;;;;;;;-0.10;99.90;;;;;;5051358;28;20079;-77
2021/12/28 04:49:33;;;;;;;52.63;26.13;;;-0.10;99.90;;;;;;5030195;28;20448;-77
2021/12/28 04:51:59;;;;;;;;;;;-0.10;99.90;;;;;;5030877;28;20033;-77
2021/12/28 04:54:25;;;;;;;55.55;25.42;;;-0.10;99.90;;;;;;5029217;28;19980;-76
2021/12/28 04:56:51;;;;;;;;;;;-0.10;99.90;;;;;;5031492;28;20111;-78
2021/12/28 04:59:17;;;;;;;49.83;25.70;;;-0.10;99.90;;;;;;5029824;28;19908;-77
2021/12/28 05:01:44;;;;;;;66.03;34.30;;;-0.10;99.90;;;;;;5046363;28;20120;-76
2021/12/28 05:04:09;;;;;;;69.75;34.00;;;-0.10;99.90;;;;;;5046275;28;20025;-77
2021/12/28 05:06:35;;;;;;;;;;;0.00;99.90;;;;;;5045639;28;20040;-77
2021/12/28 05:09:04;;;;;;;58.55;28.95;;;0.00;99.90;;;;;;5029113;28;19905;-76
2021/12/28 05:11:31;;;;;;;47.88;24.35;;;-0.10;99.90;;;;;;5046447;28;20128;-77
2021/12/28 05:13:57;;;;;;;39.50;21.20;;;-0.10;99.90;;;;;;5046276;28;20029;-76
2021/12/28 05:16:27;;;;;;;;;;;0.00;99.90;;;;;;5046970;28;20486;-77
2021/12/28 05:18:53;;;;;;;33.65;16.63;;;-0.10;99.90;;;;;;5031019;28;19909;-76
2021/12/28 05:21:19;;;;;;;;;;;-0.10;99.90;;;;;;5031479;28;20088;-76
2021/12/28 05:23:44;;;;;;;38.30;17.70;;;-0.10;99.90;;;;;;5029874;28;19951;-76
2021/12/28 05:26:10;;;;;;;;;;;-0.10;99.90;;;;;;5031124;28;20041;-76
2021/12/28 05:28:35;;;;;;;33.88;17.73;;;-0.10;99.90;;;;;;5028752;28;19963;-76
2021/12/28 05:31:01;;;;;;;;;;;0.00;99.90;;;;;;5045675;28;20087;-76
2021/12/28 05:33:27;;;;;;;35.72;15.88;;;0.00;99.90;;;;;;5027950;28;20526;-76
2021/12/28 05:35:52;;;;;;;28.70;15.23;;;0.00;99.90;;;;;;5044283;28;20052;-76
2021/12/28 05:38:18;;;;;;;49.22;21.80;;;-0.10;99.90;;;;;;5044970;28;20030;-76
2021/12/28 05:40:44;;;;;;;;;;;-0.10;99.90;;;;;;5029699;28;20762;-76
2021/12/28 05:43:09;;;;;;;52.00;24.65;;;-0.10;99.90;;;;;;5028226;28;19905;-76
2021/12/28 05:45:35;;;;;;;;;;;-0.20;99.90;;;;;;5045287;28;20055;-77
2021/12/28 05:48:00;;;;;;;54.33;26.75;;;-0.20;99.90;;;;;;5028046;28;20003;-76
2021/12/28 05:50:26;;;;;;;;;;;0.00;99.90;;;;;;5029729;28;20128;-76
2021/12/28 05:52:51;;;;;;;44.92;24.00;;;0.10;99.90;;;;;;5028113;28;20003;-76
2021/12/28 05:55:17;;;;;;;;;;;0.00;99.90;;;;;;5030367;28;20768;-76
2021/12/28 05:57:43;;;;;;;45.22;22.70;;;0.00;99.90;;;;;;5028569;28;19905;-77
2021/12/28 06:00:10;;;;;;;;;;;0.10;99.90;;;;;;5031128;28;20022;-77
2021/12/28 06:02:36;;;;;;;47.63;23.58;;;0.10;99.90;;;;;;5028895;28;20274;-77
2021/12/28 06:05:02;;;;;;;51.50;24.30;;;0.10;99.90;;;;;;5029240;28;20577;-75
2021/12/28 06:07:28;;;;;;;44.35;23.48;;;0.10;99.90;;;;;;5028938;28;20030;-75
2021/12/28 06:09:57;;;;;;;42.53;22.60;;;0.10;99.90;;;;;;5043982;28;20037;-76
2021/12/28 06:12:24;;;;;;;44.47;23.23;;;0.10;99.90;;;;;;5031894;28;20116;-74
2021/12/28 06:14:50;;;;;;;47.35;21.65;;;0.20;99.90;;;;;;5035075;28;20663;-77
2021/12/28 06:17:16;;;;;;;47.63;24.13;;;0.30;99.90;;;;;;5044507;28;20053;-76
2021/12/28 06:19:41;;;;;;;;;;;0.20;99.90;;;;;;5044343;28;20053;-77
2021/12/28 06:22:08;;;;;;;47.53;22.05;;;0.30;99.90;;;;;;5026632;28;20377;-76
2021/12/28 06:24:34;;;;;;;50.60;21.40;;;0.20;99.90;;;;;;5043050;28;20513;-76
2021/12/28 06:27:00;;;;;;;41.20;19.70;;;0.20;99.90;;;;;;5028649;28;20060;-76
2021/12/28 06:29:25;;;;;;;;;;;0.30;99.90;;;;;;5045000;28;20038;-76
2021/12/28 06:31:51;;;;;;;41.15;20.92;;;0.30;99.90;;;;;;5028646;28;19912;-77
2021/12/28 06:34:17;;;;;;;;;;;0.20;99.90;;;;;;5044514;28;20192;-76
2021/12/28 06:36:43;;;;;;;37.65;18.85;;;0.10;99.90;;;;;;5028481;28;19909;-76
2021/12/28 06:39:10;;;;;;;43.00;20.90;;;0.10;99.90;;;;;;5043987;28;20036;-76
2021/12/28 06:41:35;;;;;;;36.95;18.98;;;0.10;99.90;;;;;;5028388;28;20398;-76
2021/12/28 06:44:01;;;;;;;;;;;0.10;99.90;;;;;;5029336;28;20025;-77
2021/12/28 06:46:27;;;;;;;44.40;21.48;;;0.10;99.90;;;;;;5028765;28;19924;-76
2021/12/28 06:48:52;;;;;;;;;;;0.00;99.90;;;;;;5045645;28;20038;-79
2021/12/28 06:51:18;;;;;;;39.92;17.85;;;0.10;99.90;;;;;;5027891;28;19916;-78
2021/12/28 06:53:43;;;;;;;;;;;0.00;99.90;;;;;;5028687;28;20104;-77
2021/12/28 06:56:09;;;;;;;39.85;16.63;;;0.00;99.90;;;;;;5028036;28;20039;-76
2021/12/28 06:58:35;;;;;;;;;;;0.10;99.90;;;;;;5042341;28;20078;-76
2021/12/28 07:01:00;;;;;;;42.05;19.90;;;0.10;99.90;;;;;;5026984;28;19909;-77
2021/12/28 07:03:26;;;;;;;;;;;0.10;99.90;;;;;;5027839;28;20175;-78
2021/12/28 07:05:52;;;;;;;38.15;16.75;;;0.10;99.90;;;;;;5026728;28;19921;-78
2021/12/28 07:08:17;;;;;;;;;;;0.20;99.90;;;;;;5042748;28;20033;-77
2021/12/28 07:10:44;;;;;;;37.38;19.65;;;0.20;99.90;;;;;;5026675;28;19913;-78
2021/12/28 07:13:09;;;;;;;35.35;17.30;;;0.10;99.90;;;;;;5028091;28;20096;-77
2021/12/28 07:15:35;;;;;;;;;;;0.20;99.90;;;;;;5043582;28;20116;-78
2021/12/28 07:18:01;;;;;;;45.63;21.35;;;0.20;99.90;;;;;;5027079;28;19909;-77
2021/12/28 07:20:26;;;;;;;;;;;0.20;99.90;;;;;;5028425;28;20513;-79
2021/12/28 07:22:52;;;;;;;34.05;15.55;;;0.20;99.90;;;;;;5026954;28;19940;-77
2021/12/28 07:25:18;;;;;;;;;;;0.30;99.90;;;;;;5042403;28;20554;-77
2021/12/28 07:27:44;;;;;;;32.17;14.65;;;0.40;99.90;;;;;;5025966;28;19909;-77
2021/12/28 07:30:12;;;;;;;30.98;14.18;;;0.50;99.90;;;;;;5042600;28;20125;-77
2021/12/28 07:32:39;;;;;;;31.45;14.68;;;0.50;99.90;;;;;;5043211;28;20036;-77
2021/12/28 07:35:05;;;;;;;28.75;15.15;;;0.50;99.90;;;;;;5027496;28;20025;-77
2021/12/28 07:37:31;;;;;;;33.33;14.18;;;0.50;99.90;;;;;;5043703;28;20581;-78
2021/12/28 07:39:56;;;;;;;;;;;0.50;99.90;;;;;;5044175;28;20116;-77
2021/12/28 07:42:22;;;;;;;30.92;13.68;;;0.50;99.90;;;;;;5033630;28;19915;-78
2021/12/28 07:44:49;;;;;;;;;;;0.50;99.90;;;;;;5030548;28;20034;-77
2021/12/28 07:47:15;;;;;;;30.88;14.82;;;0.50;99.90;;;;;;5027063;28;19916;-77
2021/12/28 07:49:40;;;;;;;;;;;0.60;99.90;;;;;;5044092;28;20037;-77
2021/12/28 07:52:06;;;;;;;32.47;14.52;;;0.60;99.90;;;;;;5027434;28;20437;-77
2021/12/28 07:54:32;;;;;;;;;;;0.60;99.90;;;;;;5044336;28;20120;-77
2021/12/28 07:56:57;;;;;;;34.25;14.88;;;0.70;99.90;;;;;;5028513;28;19917;-78
2021/12/28 07:59:23;;;;;;;;;;;0.60;99.90;;;;;;5043753;28;20497;-77
2021/12/28 08:01:49;;;;;;;32.40;15.38;;;0.70;99.90;;;;;;5025854;28;19909;-77
2021/12/28 08:04:14;;;;;;;55.40;26.27;;;0.80;99.90;;;;;;5026384;28;20083;-77
2021/12/28 08:06:40;;;;;;;;;;;0.70;99.90;;;;;;5043271;28;20172;-77
2021/12/28 08:09:06;;;;;;;40.40;21.60;;;0.60;99.90;;;;;;5027589;28;19908;-77
2021/12/28 08:11:31;;;;;;;;;;;0.50;99.90;;;;;;5028917;28;20242;-77
2021/12/28 08:13:57;;;;;;;36.17;18.45;;;0.50;99.90;;;;;;5028504;28;19928;-78
2021/12/28 08:16:22;;;;;;;;;;;0.50;99.90;;;;;;5044272;28;20112;-77
2021/12/28 08:18:49;;;;;;;42.10;19.30;;;0.50;99.90;;;;;;5026718;28;19909;-78
2021/12/28 08:21:14;;;;;;;41.80;18.42;;;0.50;99.90;;;;;;5044090;28;20059;-77
2021/12/28 08:23:40;;;;;;;;;;;0.40;99.90;;;;;;5030228;28;20620;-78
2021/12/28 08:26:06;;;;;;;284.50;119.28;;;0.50;99.90;;;;;;5027451;28;19943;-78
2021/12/28 08:28:31;;;;;;;;;;;0.50;99.90;;;;;;5044950;28;20128;-77
2021/12/28 08:30:57;;;;;;;63.95;28.83;;;0.40;99.90;;;;;;5027101;28;19909;-77
2021/12/28 08:33:23;;;;;;;;;;;0.50;99.90;;;;;;5032319;28;20033;-77
2021/12/28 08:35:49;;;;;;;109.10;44.63;;;0.60;99.90;;;;;;5032649;28;19948;-77
2021/12/28 08:38:15;;;;;;;;;;;0.50;99.90;;;;;;5048997;28;20064;-78
2021/12/28 08:40:42;;;;;;;46.53;18.20;;;0.50;99.90;;;;;;5032090;28;19916;-78
2021/12/28 08:43:08;;;;;;;43.00;18.48;;;0.50;99.90;;;;;;5048447;28;20037;-76
2021/12/28 08:45:34;;;;;;;;;;;0.60;99.90;;;;;;5047908;28;20036;-75
2021/12/28 08:48:01;;;;;;;43.55;20.42;;;0.60;99.90;;;;;;5030594;28;19971;-77
2021/12/28 08:50:27;;;;;;;43.60;17.25;;;0.70;99.90;;;;;;5046974;28;20128;-77
2021/12/28 08:52:53;;;;;;;38.33;18.33;;;0.70;99.90;;;;;;5047580;28;20026;-78
2021/12/28 08:55:20;;;;;;;;;;;0.70;99.90;;;;;;5033312;28;20409;-77
2021/12/28 08:57:46;;;;;;;40.20;20.73;;;0.70;99.90;;;;;;5031424;28;19909;-77
2021/12/28 09:00:16;;;;;;;50.25;21.70;;;0.70;99.90;;;;;;5033270;28;20041;-77
2021/12/28 09:02:42;;;;;;;47.33;22.65;;;0.70;99.90;;;;;;5032697;28;20036;-78
2021/12/28 09:05:08;;;;;;;;;;;0.60;99.90;;;;;;5032958;28;20030;-75
2021/12/28 09:07:34;;;;;;;41.33;18.48;;;0.60;99.90;;;;;;5032579;28;20380;-75
2021/12/28 09:10:00;;;;;;;;;;;0.60;99.90;;;;;;5053596;28;20033;-76
2021/12/28 09:12:26;;;;;;;43.42;19.98;;;0.60;99.90;;;;;;5035269;28;19916;-76
2021/12/28 09:14:52;;;;;;;60.03;27.90;;;0.50;99.90;;;;;;5046715;28;20453;-75
2021/12/28 09:17:18;;;;;;;;;;;0.50;99.90;;;;;;5045781;28;20478;-76
2021/12/28 09:19:43;;;;;;;39.67;19.65;;;0.50;99.90;;;;;;5031055;28;19908;-77
2021/12/28 09:22:10;;;;;;;37.05;18.10;;;0.50;99.90;;;;;;5046076;28;20028;-77
2021/12/28 09:24:37;;;;;;;43.42;20.13;;;0.50;99.90;;;;;;5046227;28;20049;-76
2021/12/28 09:27:03;;;;;;;34.25;17.83;;;0.50;99.90;;;;;;5045132;28;20436;-76
2021/12/28 09:29:31;;;;;;;46.65;19.75;;;0.60;99.90;;;;;;5045400;28;20049;-76
2021/12/28 09:31:58;;;;;;;44.50;20.42;;;0.60;99.90;;;;;;5029637;28;20027;-77
2021/12/28 09:34:25;;;;;;;43.38;18.90;;;0.70;99.90;;;;;;5028877;28;20037;-75
2021/12/28 09:36:50;;;;;;;43.33;18.08;;;0.70;99.90;;;;;;5044635;28;20513;-76
2021/12/28 09:39:22;;;;;;;;;;;0.70;99.90;;;;;;5029633;28;20060;-76
2021/12/28 09:41:51;;;;;;;50.55;23.15;;;0.70;99.90;;;;;;5030508;28;19909;-76
2021/12/28 09:44:16;;;;;;;66.15;36.33;;;0.80;99.90;;;;;;5044897;28;20080;-76
2021/12/28 09:46:42;;;;;;;;;;;0.90;99.90;;;;;;5045143;28;20049;-77
2021/12/28 09:49:08;;;;;;;615.08;315.17;;;1.00;99.90;;;;;;5029289;28;19909;-78
2021/12/28 09:51:33;;;;;;;;;;;0.90;99.90;;;;;;5029940;28;20029;-76
2021/12/28 09:53:59;;;;;;;328.80;172.60;;;0.90;99.90;;;;;;5027139;28;20008;-78
2021/12/28 09:56:25;;;;;;;;;;;0.80;99.90;;;;;;5030560;28;20036;-78
2021/12/28 09:58:51;;;;;;;115.50;52.20;;;0.70;99.90;;;;;;5030591;28;20278;-75
2021/12/28 10:01:17;;;;;;;74.70;32.17;;;0.60;99.90;;;;;;5044704;28;20117;-75
2021/12/28 10:03:43;;;;;;;307.88;138.70;;;0.50;99.90;;;;;;5030355;28;20651;-75
2021/12/28 10:06:22;;;;;;;;;;;0.60;99.90;;;;;;5044989;28;20119;-75
2021/12/28 10:09:02;;;;;;;122.05;61.58;;;0.60;99.90;;;;;;5029457;28;19909;-76
2021/12/28 10:11:37;;;;;;;81.32;41.83;;;0.60;99.90;;;;;;5044835;28;20029;-76
2021/12/28 10:14:24;;;;;;;59.08;31.30;;;0.60;99.90;;;;;;5028982;28;20038;-76
2021/12/28 10:16:59;;;;;;;67.70;32.88;;;0.60;99.90;;;;;;5044869;28;20393;-77
2021/12/28 10:19:45;;;;;;;58.00;29.83;;;0.60;99.90;;;;;;5044458;28;20060;-77
2021/12/28 10:22:26;;;;;;;54.80;28.65;;;0.60;99.90;;;;;;5044828;28;20041;-76
2021/12/28 10:25:09;;;;;;;60.97;28.67;;;0.70;99.90;;;;;;5043305;28;20053;-76
2021/12/28 10:27:40;;;;;;;239.63;94.93;;;0.80;99.90;;;;;;5028520;28;20028;-75
2021/12/28 10:30:08;;;;;;;81.60;34.45;;;1.00;99.90;;;;;;5027954;28;20072;-75
2021/12/28 10:32:37;;;;;;;76.55;30.05;;;0.90;99.90;;;;;;5043016;28;20029;-76
2021/12/28 10:35:09;;;;;;;140.38;58.15;;;0.90;99.90;;;;;;5028420;28;20033;-76
2021/12/28 10:37:39;;;;;;;44.20;24.40;;;0.90;99.90;;;;;;5030103;28;20044;-76
2021/12/28 10:40:11;;;;;;;46.33;25.23;;;0.80;99.90;;;;;;5048805;28;20521;-76
2021/12/28 10:42:43;;;;;;;68.47;32.05;;;0.60;99.90;;;;;;5027803;28;20033;-76
2021/12/28 10:45:22;;;;;;;56.83;29.48;;;0.50;99.90;;;;;;5042400;28;20041;-76
2021/12/28 10:47:48;;;;;;;88.22;34.85;;;0.50;99.90;;;;;;5027243;28;20041;-76
2021/12/28 10:50:23;;;;;;;297.10;123.60;;;0.60;99.90;;;;;;5044258;28;20044;-77
2021/12/28 10:53:00;;;;;;;394.67;156.07;;;0.80;99.90;;;;;;5049103;28;20129;-75
2021/12/28 10:55:27;;;;;;;93.40;40.00;;;0.80;99.90;;;;;;5050435;28;20025;-77
2021/12/28 10:57:53;;;;;;;93.57;44.42;;;0.90;99.90;;;;;;5048872;28;20033;-77
2021/12/28 11:00:39;;;;;;;;;;;0.80;99.90;;;;;;5048751;28;20032;-78
2021/12/28 11:03:31;;;;;;;88.63;47.35;;;0.80;99.90;;;;;;5047712;28;19995;-78
2021/12/28 11:06:00;;;;;;;92.55;46.58;;;0.90;99.90;;;;;;5048500;28;20829;-78
2021/12/28 11:08:27;;;;;;;74.00;37.10;;;0.90;99.90;;;;;;5051065;28;20036;-77
2021/12/28 11:11:05;;;;;;;70.35;35.88;;;0.90;99.90;;;;;;5048599;28;20032;-77
2021/12/28 11:13:32;;;;;;;73.53;36.25;;;0.90;99.90;;;;;;5047738;28;20060;-78
2021/12/28 11:15:59;;;;;;;83.65;39.33;;;0.80;99.90;;;;;;5050891;28;20136;-77
2021/12/28 11:18:38;;;;;;;226.50;102.82;;;0.80;99.90;;;;;;5048184;28;20024;-77
2021/12/28 11:21:19;;;;;;;191.75;75.72;;;0.90;99.90;;;;;;5048711;28;20082;-77
2021/12/28 11:23:50;;;;;;;328.60;142.05;;;0.90;99.90;;;;;;5049044;28;20023;-78
2021/12/28 11:26:23;;;;;;;74.38;37.38;;;0.90;99.90;;;;;;5048889;28;20049;-77
2021/12/28 11:29:03;;;;;;;79.43;40.70;;;0.80;99.90;;;;;;5049874;28;20025;-77
2021/12/28 11:31:36;;;;;;;79.22;43.55;;;0.70;99.90;;;;;;5049770;28;20029;-78
2021/12/28 11:34:11;;;;;;;117.38;53.50;;;0.70;99.90;;;;;;5050561;28;20036;-77
2021/12/28 11:36:43;;;;;;;72.82;37.58;;;0.70;99.90;;;;;;5050360;28;20025;-78
2021/12/28 11:39:13;;;;;;;81.93;41.15;;;0.70;99.90;;;;;;5049163;28;20115;-78
2021/12/28 11:41:39;;;;;;;79.20;41.28;;;0.70;99.90;;;;;;5052124;28;20044;-78
2021/12/28 11:44:06;;;;;;;80.65;40.50;;;0.70;99.90;;;;;;5052080;28;20036;-78
2021/12/28 11:46:32;;;;;;;89.30;47.47;;;0.60;99.90;;;;;;5053746;28;20048;-78
2021/12/28 11:48:57;;;;;;;;;;;0.60;99.90;;;;;;5053274;28;20018;-78
2021/12/28 11:51:24;;;;;;;60.05;32.80;;;0.70;99.90;;;;;;5050639;28;19916;-78
2021/12/28 11:53:53;;;;;;;80.03;40.70;;;0.70;99.90;;;;;;5052020;28;20033;-78
2021/12/28 11:56:27;;;;;;;104.00;54.15;;;0.60;99.90;;;;;;5052965;28;20029;-78
2021/12/28 11:58:57;;;;;;;63.83;35.97;;;0.60;99.90;;;;;;5052683;28;20064;-77
2021/12/28 12:01:44;;;;;;;59.45;31.63;;;0.70;99.90;;;;;;5054240;28;20018;-77
2021/12/28 12:04:31;;;;;;;60.85;30.58;;;0.70;99.90;;;;;;5061360;28;20083;-78
2021/12/28 12:07:16;;;;;;;100.18;58.67;;;0.90;99.90;;;;;;5058737;28;20037;-76
2021/12/28 12:09:54;;;;;;;79.13;40.58;;;0.90;99.90;;;;;;5050585;28;20036;-77
2021/12/28 12:12:19;;;;;;;61.35;31.48;;;0.70;99.90;;;;;;5043949;28;20041;-76
2021/12/28 12:14:58;;;;;;;;;;;0.70;99.90;;;;;;5041714;28;20095;-77
2021/12/28 12:17:37;;;;;;;;;;;0.70;99.90;;;;;;5043935;28;20592;-77
2021/12/28 12:20:08;;;;;;;62.58;30.27;;;0.70;99.90;;;;;;5041618;28;19916;-77
2021/12/28 12:22:40;;;;;;;56.58;28.80;;;0.70;99.90;;;;;;5043769;28;20040;-77
2021/12/28 12:25:17;;;;;;;58.15;28.33;;;0.80;99.90;;;;;;5036853;28;20087;-77
2021/12/28 12:27:48;;;;;;;51.90;27.98;;;0.80;99.90;;;;;;5043568;28;20124;-77
2021/12/28 12:30:27;;;;;;;70.07;33.92;;;0.90;99.90;;;;;;5043021;28;20106;-78
2021/12/28 12:32:58;;;;;;;60.53;30.17;;;0.80;99.90;;;;;;5050912;28;20029;-78
2021/12/28 12:35:50;;;;;;;78.53;38.45;;;0.80;99.90;;;;;;5051988;28;20017;-77
2021/12/28 12:38:16;;;;;;;68.43;34.42;;;0.70;99.90;;;;;;5049908;28;20028;-77
2021/12/28 12:40:54;;;;;;;;;;;0.70;99.90;;;;;;5052394;28;20033;-78
2021/12/28 12:43:21;;;;;;;64.28;30.10;;;0.70;99.90;;;;;;5051589;28;19904;-77
2021/12/28 12:46:03;;;;;;;64.00;34.90;;;0.70;99.90;;;;;;5049790;28;20048;-76
2021/12/28 12:48:37;;;;;;;63.33;31.23;;;0.70;99.90;;;;;;5050486;28;20025;-77
2021/12/28 12:51:24;;;;;;;57.88;28.33;;;0.60;99.90;;;;;;5050190;28;20033;-77
2021/12/28 12:53:58;;;;;;;67.55;31.30;;;0.70;99.90;;;;;;5049603;28;20025;-76
2021/12/28 12:56:34;;;;;;;63.95;31.17;;;0.60;99.90;;;;;;5051667;28;20119;-77
2021/12/28 12:59:18;;;;;;;184.57;93.68;;;0.50;99.90;;;;;;5048543;28;20606;-77
2021/12/28 13:01:44;;;;;;;83.40;42.50;;;0.50;99.90;;;;;;5050653;28;20080;-80
2021/12/28 13:04:25;;;;;;;;;;;0.50;99.90;;;;;;5053923;28;20068;-77
2021/12/28 13:07:06;;;;;;;84.05;42.15;;;0.60;99.90;;;;;;5052678;28;19966;-78
2021/12/28 13:09:34;;;;;;;43.75;22.25;;;0.50;99.90;;;;;;5052577;28;20049;-77